Terminal Aerodrome Forecast
Issued by NWS

Home | Current Version | Previous Version | Text Only | Print | Product List | Glossary On
Versions: 1 2 3 4 5 6 7 8 9 10 11 12 13 14 15 16 17
000
FTAK31 PAJN 312321
TAFAWG
TAF
PAWG 312321Z 0100/0124 VRB03KT P6SM -SHRA FEW005 BKN035 OVC060
     FM010500 12005KT P6SM VCSH FEW010 OVC050
     FM011500 06007KT P6SM SCT050 BKN100
     FM012100 28008KT P6SM SCT150
      AMD LTD TO CLD VIS AND WIND 0106/0115=

USA.gov is the U.S. government's official web portal to all federal, state and local government web resources and services.